Ovapa, West Virginia
Current Conditions -  °F | °C
As of 12:54 AM on Friday 19 Dec 2014 (Local Time) from KCRW Reporting Station
Overcast Overcast  
Wind Chill: 30°   Ceiling: 2600
Heat Index: 30°   Visibility: 10mi
Dew Point: 22°   Wind: 0mph
Humidity: 72%   Direction: NA
Pressure: 30.2"   Gusts: NA
Location:  38.53°N, 81.15°W
Report Text: KCRW 190554Z 00000KT 10SM OVC026 M01/M06 A3020 RMK AO2 SLP236 T10111056 11006 21017 50003 $
Loading
Personal Weather Stations






























Interactive Weather Map New forecast layout! Learn more

10-Day Weather Forecast

Advertisements
Track Severe Weather on mobile